Details From EDDH - Hamburg
To EDXW - Westerland Sylt
Flight Number -
Tags generated
Created
Modified
Stats Distance 96 nm / 178 km
Max Altitude 9,100 ft / 2,774 m
Waypoints 3
Social Downloads 0
Likes 0
Share VATSIM

Download

Looking for another format? Having issues loading an existing format? Contact us
Advertisement - Login to hide

Notes

Basic altitude profile: - Ascent Rate: 2500ft/min - Ascent Speed: 250kts - Cruise Altitude: 35000ft - Cruise Speed: 420kts - Descent Rate: 1500ft/min - Descent Speed: 250kts Options: - Use NATs: yes - Use PACOTS: yes - Use low airways: yes - Use high airways: yes

Route

EDDH BADOS EDXW

ID Type Via Altitude Latitude Longitude Leg Dist Tot Dist Heading (true) Name
O EDDH APT - 0 ft / 0 m 53.63367˚ 9.98524˚ - 0 nm - Hamburg
BADOS FIX - 9,100 ft / 2,774 m 54.37000˚ 9.13528˚ 53 nm 53 nm 326° / 326° -
O EDXW APT - 0 ft / 0 m 54.91243˚ 8.34154˚ 42 nm 96 nm 320° / 319° Westerland Sylt

Altitude Profile

Advertisement - Login to hide

EDDH

Details ICAO EDDH (HAM)
Name Hamburg
Region Germany - Civil
Timezone Europe/Berlin (UTC+1.0)
Stats Elevation 53 ft / 16 m (AMSL)
Location 53.633665° 9.985235°
Runways 2
Magnetic Variation 2.787° E

METAR

EDDH 181420Z 20002KT CAVOK 03/M01 Q1025 NOSIG

Decode

TAF

TAF TAF EDDH 181100Z 1812/1918 16007KT CAVOK BECMG 1813/1815 VRB03KT BECMG 1823/1902 23007KT BECMG 1903/1906 3500 -RADZ BKN006 TEMPO 1905/1908 2500 RADZ BKN003

Decode

Departure Runways

ID Width Length Bearing (true) Bearing (mag) Surface Threshold Offset Overrun Length
05 151 ft / 46 m 10,647 ft / 3,245 m 50.18° 47.39° Asphalt 978 ft / 298 m 194 ft / 59 m
15 151 ft / 46 m 12,013 ft / 3,662 m 152.89° 150.10° Asphalt 0 ft / 0 m 194 ft / 59 m
23 151 ft / 46 m 10,647 ft / 3,245 m 230.22° 227.43° Asphalt 509 ft / 155 m 240 ft / 73 m
33 151 ft / 46 m 12,013 ft / 3,662 m 332.91° 330.12° Asphalt 1,463 ft / 446 m 164 ft / 50 m

EDXW

Details ICAO EDXW (GWT)
Name Westerland Sylt
Region Germany - Civil
Timezone Europe/Berlin (UTC+1.0)
Stats Elevation 51 ft / 16 m (AMSL)
Location 54.912433° 8.341536°
Runways 2
Magnetic Variation 2.243° E

METAR

EDXW 181420Z 21008KT 9999 SCT008 BKN014 BKN018 04/03 Q1024

Decode

TAF

Not found

Destination Runways

ID Width Length Bearing (true) Bearing (mag) Surface Threshold Offset Overrun Length
06 148 ft / 45 m 5,551 ft / 1,692 m 59.58° 57.34° Asphalt 0 ft / 0 m 0 ft / 0 m
14 148 ft / 45 m 6,944 ft / 2,117 m 144.52° 142.28° Asphalt 0 ft / 0 m 105 ft / 32 m
24 148 ft / 45 m 5,551 ft / 1,692 m 239.60° 237.36° Asphalt 0 ft / 0 m 0 ft / 0 m
32 148 ft / 45 m 6,944 ft / 2,117 m 324.53° 322.29° Asphalt 0 ft / 0 m 105 ft / 32 m

Approach Navaids

Runway Type Ident Frequency Range Bearing (true) Bearing (mag) Slope Elevation
32 Localiser IWES 111.50 MHz 18 nm / 33 km 324.52° 322.28° - 32 ft / 10 m (AMSL)
32 Glidescope IWES 111.50 MHz 10 nm / 19 km 324.53° 322.28° 3.00° 32 ft / 10 m (AMSL)
32 DME IWES 111.50 MHz 18 nm / 33 km - - - 49 ft / 15 m (AMSL)

Popular Alternatives